createdAt,value
2023-05-19T00:00:24.789Z,11.98
2023-05-19T00:02:55.789Z,11.90
2023-05-19T00:05:27.588Z,11.88
2023-05-19T00:07:58.950Z,12.05
2023-05-19T00:10:31.285Z,12.06
2023-05-19T00:13:01.849Z,12.05
2023-05-19T00:15:31.853Z,11.82
2023-05-19T00:18:00.488Z,11.67
2023-05-19T00:20:29.239Z,11.78
2023-05-19T00:22:58.205Z,11.89
2023-05-19T00:25:27.522Z,11.80
2023-05-19T00:27:58.024Z,11.77
2023-05-19T00:30:27.017Z,11.76
2023-05-19T00:32:56.019Z,11.75
2023-05-19T00:35:25.257Z,11.73
2023-05-19T00:37:53.923Z,12.00
2023-05-19T00:40:24.431Z,12.18
2023-05-19T00:42:53.150Z,12.30
2023-05-19T00:45:22.635Z,12.41
2023-05-19T00:47:51.442Z,12.50
2023-05-19T00:50:20.524Z,12.57
2023-05-19T00:52:49.463Z,12.63
2023-05-19T00:55:19.467Z,12.70
2023-05-19T00:57:49.817Z,12.72
2023-05-19T01:00:19.022Z,12.59
2023-05-19T01:02:48.013Z,12.47
2023-05-19T01:05:17.530Z,12.25
2023-05-19T01:07:47.416Z,12.24
2023-05-19T01:10:16.126Z,12.20
2023-05-19T01:12:44.798Z,12.05
2023-05-19T01:15:14.837Z,12.11
2023-05-19T01:17:49.969Z,12.28
2023-05-19T01:20:25.452Z,12.10
2023-05-19T01:23:14.651Z,11.91
2023-05-19T01:26:12.833Z,11.78
2023-05-19T01:29:12.244Z,11.85
2023-05-19T01:31:44.121Z,11.93
2023-05-19T01:34:14.686Z,11.76
2023-05-19T01:36:44.869Z,11.75
2023-05-19T01:39:15.272Z,11.60
2023-05-19T01:41:45.916Z,11.53
2023-05-19T01:44:16.272Z,11.38
2023-05-19T01:46:45.330Z,11.24
2023-05-19T01:49:14.948Z,11.21
2023-05-19T01:51:44.371Z,11.30
2023-05-19T01:54:13.233Z,11.51
2023-05-19T01:56:53.005Z,11.43
2023-05-19T01:59:52.236Z,11.17
2023-05-19T02:02:28.995Z,11.11
2023-05-19T02:05:03.480Z,11.34
2023-05-19T02:07:42.090Z,11.29
2023-05-19T02:10:19.519Z,11.11
2023-05-19T02:12:50.998Z,11.16
2023-05-19T02:15:25.556Z,11.17
2023-05-19T02:17:55.764Z,11.15
2023-05-19T02:20:24.587Z,11.14
2023-05-19T02:22:53.423Z,11.08
2023-05-19T02:25:23.008Z,11.21
2023-05-19T02:27:52.694Z,11.25
2023-05-19T02:30:21.491Z,11.10
2023-05-19T02:32:50.302Z,11.03
2023-05-19T02:35:19.628Z,11.18
2023-05-19T02:37:48.327Z,11.18
2023-05-19T02:40:17.479Z,11.20
2023-05-19T02:42:46.274Z,11.38
2023-05-19T02:45:15.298Z,11.41
2023-05-19T02:47:44.269Z,11.36
2023-05-19T02:50:13.206Z,11.30
2023-05-19T02:52:41.900Z,11.15
2023-05-19T02:55:16.555Z,11.02
2023-05-19T02:57:45.164Z,10.92
2023-05-19T03:00:15.649Z,10.81
2023-05-19T03:02:44.451Z,10.79
2023-05-19T03:05:14.035Z,10.90
2023-05-19T03:07:42.705Z,10.88
2023-05-19T03:10:11.707Z,10.79
2023-05-19T03:12:40.303Z,10.93
2023-05-19T03:15:12.684Z,11.02
2023-05-19T03:17:41.444Z,11.07
2023-05-19T03:20:12.138Z,11.02
2023-05-19T03:22:41.131Z,10.99
2023-05-19T03:25:10.837Z,10.95
2023-05-19T03:27:51.002Z,11.02
2023-05-19T03:30:31.135Z,11.06
2023-05-19T03:33:12.482Z,11.18
2023-05-19T03:35:54.936Z,11.37
2023-05-19T03:38:34.874Z,11.22
2023-05-19T03:41:16.776Z,11.20
2023-05-19T03:43:45.611Z,11.12
2023-05-19T03:46:14.455Z,11.12
2023-05-19T03:48:43.292Z,11.23
2023-05-19T03:51:11.959Z,11.26
2023-05-19T03:53:41.368Z,11.19
2023-05-19T03:56:13.252Z,11.26
2023-05-19T03:58:43.086Z,11.38
2023-05-19T04:01:12.064Z,11.37
2023-05-19T04:03:41.033Z,11.41
2023-05-19T04:06:10.866Z,11.47
2023-05-19T04:08:40.066Z,11.27
2023-05-19T04:11:08.846Z,11.14
2023-05-19T04:13:37.751Z,11.14
2023-05-19T04:16:08.018Z,11.32
2023-05-19T04:18:36.988Z,11.50
2023-05-19T04:21:08.133Z,11.43
2023-05-19T04:23:36.892Z,11.32
2023-05-19T04:26:06.572Z,11.35
2023-05-19T04:28:38.709Z,11.24
2023-05-19T04:31:10.491Z,11.25
2023-05-19T04:33:39.471Z,11.29
2023-05-19T04:36:10.255Z,11.31
2023-05-19T04:38:40.169Z,11.29
2023-05-19T04:41:10.456Z,11.28
2023-05-19T04:43:41.372Z,11.20
2023-05-19T04:46:13.409Z,11.36
2023-05-19T04:48:42.946Z,11.35
2023-05-19T04:51:13.813Z,11.28
2023-05-19T04:53:43.676Z,11.24
2023-05-19T04:56:14.713Z,11.23
2023-05-19T04:58:44.540Z,11.21
2023-05-19T05:01:15.392Z,11.22
2023-05-19T05:03:44.643Z,11.29
2023-05-19T05:06:13.445Z,11.52
2023-05-19T05:08:42.272Z,11.63
2023-05-19T05:11:13.486Z,11.47
2023-05-19T05:13:43.090Z,11.38
2023-05-19T05:16:15.785Z,11.42
2023-05-19T05:18:46.528Z,11.53
2023-05-19T05:21:16.612Z,11.44
2023-05-19T05:23:47.589Z,11.41
2023-05-19T05:26:19.948Z,11.28
2023-05-19T05:28:48.606Z,11.32
2023-05-19T05:31:17.574Z,11.35
2023-05-19T05:33:47.041Z,11.50
2023-05-19T05:36:15.891Z,11.57
2023-05-19T05:38:44.927Z,11.50
2023-05-19T05:41:13.725Z,11.45
2023-05-19T05:43:42.557Z,11.59
2023-05-19T05:46:11.533Z,11.68
2023-05-19T05:48:42.333Z,11.63
2023-05-19T05:51:13.252Z,11.74
2023-05-19T05:53:45.009Z,11.72
2023-05-19T05:56:16.953Z,11.74
2023-05-19T05:58:45.800Z,11.77
2023-05-19T06:01:17.347Z,11.77
2023-05-19T06:03:46.222Z,11.85
2023-05-19T06:06:14.967Z,11.89
2023-05-19T06:08:43.963Z,11.96
2023-05-19T06:11:12.774Z,11.89
2023-05-19T06:13:41.665Z,11.96
2023-05-19T06:16:10.654Z,12.15
2023-05-19T06:18:39.886Z,12.18
2023-05-19T06:21:09.961Z,12.13
2023-05-19T06:23:38.684Z,12.07
2023-05-19T06:26:07.801Z,12.03
2023-05-19T06:28:36.569Z,12.09
2023-05-19T06:31:05.657Z,12.08
2023-05-19T06:33:34.464Z,12.21
2023-05-19T06:36:03.462Z,12.27
2023-05-19T06:38:32.438Z,12.25
2023-05-19T06:41:01.257Z,12.32
2023-05-19T06:43:30.174Z,12.32
2023-05-19T06:45:59.214Z,12.22
2023-05-19T06:48:28.131Z,12.27
2023-05-19T06:50:57.047Z,12.46
2023-05-19T06:53:26.015Z,12.63
2023-05-19T06:55:59.913Z,12.67
2023-05-19T06:58:28.990Z,12.61
2023-05-19T07:00:57.927Z,12.54
2023-05-19T07:03:26.956Z,12.68
2023-05-19T07:05:56.704Z,12.66
2023-05-19T07:08:27.429Z,12.57
2023-05-19T07:10:56.283Z,12.50
2023-05-19T22:09:02.239Z,14.31
2023-05-19T22:11:31.326Z,14.23
2023-05-19T22:14:00.615Z,14.20
2023-05-19T22:16:30.718Z,14.31
2023-05-19T22:18:59.635Z,14.38
2023-05-19T22:21:29.052Z,14.44
2023-05-19T22:23:58.643Z,14.35
2023-05-19T22:26:27.719Z,14.31
2023-05-19T22:28:57.109Z,14.36
2023-05-19T22:31:25.953Z,14.25
2023-05-19T22:33:54.914Z,14.26
2023-05-19T22:36:24.846Z,14.35
2023-05-19T22:38:53.726Z,14.33
2023-05-19T22:41:23.692Z,14.20
2023-05-19T22:43:52.795Z,14.31
2023-05-19T22:46:22.512Z,14.38
2023-05-19T22:48:51.672Z,14.41
2023-05-19T22:51:20.594Z,14.43
2023-05-19T22:53:49.780Z,14.43
2023-05-19T22:56:18.532Z,14.44
2023-05-19T22:58:48.164Z,14.39
2023-05-19T23:01:17.129Z,14.46
2023-05-19T23:03:46.141Z,14.39
2023-05-19T23:06:14.966Z,14.34
2023-05-19T23:08:46.706Z,14.37
2023-05-19T23:11:15.622Z,14.24
2023-05-19T23:13:44.534Z,14.18
2023-05-19T23:16:13.634Z,14.22
2023-05-19T23:18:43.217Z,14.32
2023-05-19T23:21:12.221Z,14.25
2023-05-19T23:23:41.267Z,14.20
2023-05-19T23:26:12.891Z,14.20
2023-05-19T23:28:43.474Z,14.26
2023-05-19T23:31:12.957Z,14.53
2023-05-19T23:33:41.965Z,14.60
2023-05-19T23:36:12.522Z,14.47
2023-05-19T23:38:41.431Z,14.53
2023-05-19T23:41:10.588Z,14.51
2023-05-19T23:43:39.895Z,14.60
2023-05-19T23:46:09.082Z,14.57
2023-05-19T23:48:37.973Z,14.44
2023-05-19T23:51:07.454Z,14.41
2023-05-19T23:53:36.284Z,14.23
2023-05-19T23:56:05.630Z,14.08
2023-05-19T23:58:34.381Z,14.01
